Airfield :
LOGIN :

Register | Disclaimer

   EN    FR    IT 

 










Legend :    VFR   Marginal VFR   IFR   Intensive IFR   Very Intensive IFR
Visi :
Ceiling :
>= 8 km
>= 3000ft
5 to 8 km
1000 to 3000 ft
1500m to 5 km
500 to 1000 ft
800 to 1500m
200 to 500 ft
< 800m
< 200 ft
Symbols :   Thunderstorms  Fog  Heavy snow  Heavy precipitations  Wind > 20 kt
SIGMETs :     Misc.  Thunderstorms  Icing  Turbulence  Mountain Waves  Volcanic Ashes






- Airport Elevation : 187 ft


ETNW - Wunstorf AB

CURRENT METAR :
  • 071620Z AUTO 29015KT 9999 // ////// 11/01 Q1014 ///

EXPIRED METARs :
  • 071520Z AUTO 29015KT 9999 // ////// 11/01 Q1014 ///
  • 071420Z AUTO 29009KT 9000 // ////// 10/02 Q1013 ///
  • 071335Z 34014KT 9999 VCSH FEW025 BKN030CB 07/03 Q1013 BLU FCST CNL

TAF TAF ETNW
Valid from the 07 at 11:00 until the 08 at 11:00 UTC


071000Z 0711/0811 29010KT 9999 NSW BKN030
TEMPO 0711/0718 28010G20KT 4000 SHRA BKN010 BKN020CB
PROB30 0711/0716 29012G22KT 3000 TSRA BKN010 BKN020CB
BECMG 0718/0720 23005KT 9999 NSW SCT030
TEMPO 0802/0805 21005KT 5000 BR SCT030 BY ETGL



MET'MAP, your aeronautical weather chart ! - Copyright ORBIFLY December 2007 - Disclaimer

ORBIFLY MET'MAP TEAM :

Programming & Development : Alexandra Zaïnal
Concept & original design : Baudouin d'Aumeries
Assistance for programming : Marc-Olivier Méhu
Technical & hardware support : Manuel Goepfert

Contact : metmap@orbifly.com




SOURCES & CREDITS :

   NOAA